Time;durP1;ratioP1;P1;durP2;ratioP2;P2;SDS_P1;SDS_P2;PMS_P1;PMS_P2;Temp;Humidity;BMP_temperature;BMP_pressure;BME280_temperature;BME280_humidity;BME280_pressure;Samples;Min_cycle;Max_cycle;Signal;HPM_P1;HPM_P2
2022/11/24 00:01:14;;;;;;;;;;;;;;;18.77;63.35;99883.09;7405902;19;1615;-57
2022/11/24 00:03:42;;;;;;;;;;;;;;;18.79;62.83;99891.81;7406152;19;1572;-56
2022/11/24 00:06:14;;;;;;;;;;;;;;;18.81;62.61;99873.75;7404726;19;1854;-57
2022/11/24 00:08:43;;;;;;;;;;;;;;;18.76;62.66;99876.03;7405007;19;1473;-57
2022/11/24 00:11:13;;;;;;;;;;;;;;;18.78;62.77;99898.13;7406171;19;1573;-57
2022/11/24 00:13:41;;;;;;;;;;;;;;;18.77;63.14;99870.53;7406194;19;1761;-57
2022/11/24 00:16:11;;;;;;;;;;;;;;;18.76;62.87;99881.38;7406299;19;1464;-57
2022/11/24 00:18:40;;;;;;;;;;;;;;;18.75;62.73;99872.50;7405762;19;1556;-57
2022/11/24 00:21:08;;;;;;;;;;;;;;;18.74;63.15;99878.03;7405209;19;1681;-57
2022/11/24 00:23:39;;;;;;;;;;;;;;;18.74;63.03;99880.69;7406694;19;1537;-57
2022/11/24 00:26:09;;;;;;;;;;;;;;;18.74;62.77;99875.34;7405424;19;1853;-57
2022/11/24 00:28:38;;;;;;;;;;;;;;;18.71;62.95;99884.53;7405860;19;1474;-57
2022/11/24 00:31:07;;;;;;;;;;;;;;;18.73;62.91;99887.06;7404957;19;1623;-57
2022/11/24 00:33:35;;;;;;;;;;;;;;;18.74;62.56;99886.91;7405278;19;1477;-57
2022/11/24 00:36:04;;;;;;;;;;;;;;;18.71;62.79;99895.25;7404410;19;1670;-57
2022/11/24 00:38:32;;;;;;;;;;;;;;;18.69;62.55;99890.03;7405716;19;1575;-57
2022/11/24 00:41:03;;;;;;;;;;;;;;;18.75;62.86;99893.94;7404857;19;1493;-57
2022/11/24 00:43:31;;;;;;;;;;;;;;;18.76;62.74;99881.38;7405071;19;1459;-57
2022/11/24 00:46:00;;;;;;;;;;;;;;;18.74;62.61;99888.72;7403643;19;1854;-57
2022/11/24 00:48:28;;;;;;;;;;;;;;;18.76;62.42;99884.06;7405141;19;1638;-57
2022/11/24 00:51:00;;;;;;;;;;;;;;;18.71;62.29;99878.34;7405217;19;1595;-57
2022/11/24 00:53:28;;;;;;;;;;;;;;;18.70;62.06;99893.56;7403627;19;1667;-57
2022/11/24 00:55:57;;;;;;;;;;;;;;;18.67;62.39;99881.31;7404730;19;1613;-57
2022/11/24 00:58:28;;;;;;;;;;;;;;;18.73;62.24;99871.00;7403804;19;1687;-56
2022/11/24 01:00:57;;;;;;;;;;;;;;;18.74;62.36;99873.53;7398450;19;1666;-57
2022/11/24 01:03:25;;;;;;;;;;;;;;;18.72;61.98;99885.38;7403355;19;1698;-56
2022/11/24 01:05:53;;;;;;;;;;;;;;;18.72;61.77;99882.69;7403315;19;1884;-56
2022/11/24 01:08:21;;;;;;;;;;;;;;;18.66;62.37;99890.38;7402798;19;1760;-56
2022/11/24 01:10:50;;;;;;;;;;;;;;;18.69;61.86;99891.88;7404217;19;1718;-56
2022/11/24 01:13:18;;;;;;;;;;;;;;;18.69;62.03;99891.88;7404239;19;1631;-55
2022/11/24 01:15:49;;;;;;;;;;;;;;;18.78;62.62;99882.94;7404369;19;1480;-63
2022/11/24 01:18:17;;;;;;;;;;;;;;;18.76;62.93;99881.38;7400991;19;1699;-63
2022/11/24 01:20:45;;;;;;;;;;;;;;;18.73;62.79;99879.88;7406953;19;1472;-63
2022/11/24 01:23:14;;;;;;;;;;;;;;;18.73;62.62;99887.06;7407914;19;1715;-64
2022/11/24 01:25:42;;;;;;;;;;;;;;;18.69;62.29;99883.84;7410062;19;1865;-64
2022/11/24 01:28:10;;;;;;;;;;;;;;;18.67;62.50;99891.19;7410672;19;1774;-63
2022/11/24 01:30:39;;;;;;;;;;;;;;;18.64;62.79;99887.00;7410923;19;1464;-64
2022/11/24 01:33:10;;;;;;;;;;;;;;;18.66;62.44;99889.50;7410420;19;1709;-63
2022/11/24 01:35:38;;;;;;;;;;;;;;;18.73;62.54;99887.06;7408370;19;1494;-63
2022/11/24 01:38:06;;;;;;;;;;;;;;;18.67;62.04;99883.16;7410673;19;1651;-63
2022/11/24 01:40:35;;;;;;;;;;;;;;;18.70;62.54;99877.47;7410240;19;1589;-63
2022/11/24 01:43:03;;;;;;;;;;;;;;;18.69;62.36;99900.75;7407188;19;1627;-64
2022/11/24 01:45:34;;;;;;;;;;;;;;;18.68;61.80;99885.69;7409955;19;1858;-64
2022/11/24 01:48:04;;;;;;;;;;;;;;;18.69;61.96;99897.25;7410185;19;1821;-64
2022/11/24 01:50:37;;;;;;;;;;;;;;;18.65;62.16;99880.63;7410375;19;1540;-63
2022/11/24 01:53:06;;;;;;;;;;;;;;;18.66;62.01;99876.13;7410312;19;1654;-64
2022/11/24 01:55:36;;;;;;;;;;;;;;;18.65;61.96;99877.13;7409508;19;1389;-64
2022/11/24 01:58:07;;;;;;;;;;;;;;;18.66;62.30;99886.81;7408418;19;1559;-65
2022/11/24 02:00:36;;;;;;;;;;;;;;;18.67;62.22;99889.34;7410059;19;1488;-64
2022/11/24 02:03:05;;;;;;;;;;;;;;;19.36;60.97;99891.34;7409088;19;1697;-64
2022/11/24 02:05:40;;;;;;;;;;;;;;;20.12;59.68;99878.97;7410544;19;1863;-64
2022/11/24 02:08:12;;;;;;;;;;;;;;;20.85;57.78;99875.53;7408676;19;1631;-64
2022/11/24 02:10:41;;;;;;;;;;;;;;;21.29;56.78;99868.88;7407397;19;1775;-64
2022/11/24 02:13:09;;;;;;;;;;;;;;;21.50;56.16;99873.72;7410133;19;1507;-64
2022/11/24 02:15:37;;;;;;;;;;;;;;;21.38;56.64;99878.59;7409719;19;1560;-64
2022/11/24 02:18:06;;;;;;;;;;;;;;;21.35;56.62;99869.03;7410390;19;1518;-64
2022/11/24 02:20:37;;;;;;;;;;;;;;;21.33;57.09;99873.75;7409919;19;1383;-64
2022/11/24 02:23:08;;;;;;;;;;;;;;;21.31;57.12;99875.78;7406838;19;1521;-64
2022/11/24 02:25:42;;;;;;;;;;;;;;;21.38;57.11;99873.22;7408363;19;1855;-64
2022/11/24 02:28:14;;;;;;;;;;;;;;;21.49;57.12;99880.09;7408845;19;1531;-64
2022/11/24 02:30:42;;;;;;;;;;;;;;;21.50;57.03;99885.31;7408542;19;1445;-64
2022/11/24 02:33:11;;;;;;;;;;;;;;;21.56;56.72;99889.16;7407739;19;1591;-64
2022/11/24 02:35:40;;;;;;;;;;;;;;;21.56;56.93;99890.00;7409238;19;1434;-64
2022/11/24 02:38:08;;;;;;;;;;;;;;;21.54;56.93;99885.81;7406697;19;1713;-64
2022/11/24 02:40:37;;;;;;;;;;;;;;;21.63;56.68;99892.84;7406348;19;1696;-64
2022/11/24 02:43:07;;;;;;;;;;;;;;;21.73;56.50;99901.56;7406269;19;1709;-64
2022/11/24 02:45:38;;;;;;;;;;;;;;;21.79;56.13;99895.47;7408146;19;1846;-64
2022/11/24 02:48:06;;;;;;;;;;;;;;;21.90;56.24;99907.69;7408135;19;1564;-64
2022/11/24 02:50:35;;;;;;;;;;;;;;;21.85;56.22;99897.44;7408813;19;1535;-64
2022/11/24 02:53:03;;;;;;;;;;;;;;;21.83;56.14;99894.09;7407899;19;1760;-64
2022/11/24 02:55:31;;;;;;;;;;;;;;;21.87;56.21;99891.06;7408144;19;1393;-64
2022/11/24 02:58:00;;;;;;;;;;;;;;;21.80;56.58;99899.81;7407468;19;1488;-64
2022/11/24 03:00:28;;;;;;;;;;;;;;;21.82;56.15;99889.72;7408175;19;1607;-64
2022/11/24 03:02:59;;;;;;;;;;;;;;;21.82;56.60;99897.78;7403150;19;1608;-64
2022/11/24 03:05:28;;;;;;;;;;;;;;;21.88;56.46;99895.41;7407502;19;1475;-64
2022/11/24 03:07:57;;;;;;;;;;;;;;;21.88;56.56;99882.78;7404981;19;1855;-64
2022/11/24 03:10:27;;;;;;;;;;;;;;;21.91;56.68;99887.00;7407949;19;1591;-64
2022/11/24 03:12:55;;;;;;;;;;;;;;;21.91;56.32;99892.41;7408061;19;1570;-65
2022/11/24 03:15:24;;;;;;;;;;;;;;;21.87;56.61;99894.59;7408276;19;1799;-64
2022/11/24 03:17:55;;;;;;;;;;;;;;;21.99;56.46;99895.88;7406188;19;1666;-64
2022/11/24 03:20:27;;;;;;;;;;;;;;;22.01;56.52;99895.69;7408178;19;1017;-64
2022/11/24 03:22:55;;;;;;;;;;;;;;;21.96;56.58;99906.97;7407162;19;1670;-64
2022/11/24 03:25:23;;;;;;;;;;;;;;;21.97;56.64;99897.06;7407564;19;1646;-64
2022/11/24 03:27:52;;;;;;;;;;;;;;;22.06;56.53;99909.44;7404713;19;1869;-64
2022/11/24 03:30:20;;;;;;;;;;;;;;;21.53;58.24;99900.28;7407258;19;1728;-64
2022/11/24 03:32:48;;;;;;;;;;;;;;;21.56;58.40;99902.63;7407397;19;1480;-64
2022/11/24 03:35:17;;;;;;;;;;;;;;;21.52;58.79;99893.22;7407767;19;1643;-64
2022/11/24 03:37:48;;;;;;;;;;;;;;;21.50;58.53;99879.09;7406356;19;1748;-64
2022/11/24 03:40:16;;;;;;;;;;;;;;;21.63;58.78;99895.53;7406980;19;1540;-64
2022/11/24 03:42:45;;;;;;;;;;;;;;;21.40;59.44;99892.72;7404613;19;1456;-64
2022/11/24 03:45:13;;;;;;;;;;;;;;;21.53;59.22;99890.34;7407074;19;1742;-64
2022/11/24 03:47:41;;;;;;;;;;;;;;;21.54;59.05;99896.56;7404045;19;1840;-64
2022/11/24 03:50:11;;;;;;;;;;;;;;;21.29;60.18;99903.81;7402598;19;1733;-64
2022/11/24 03:52:39;;;;;;;;;;;;;;;20.66;62.93;99909.75;7406993;19;1239;-64
2022/11/24 03:55:10;;;;;;;;;;;;;;;20.25;64.35;99904.34;7399303;19;1437;-58
2022/11/24 03:57:38;;;;;;;;;;;;;;;19.97;64.94;99914.47;7403908;19;1456;-58
2022/11/24 04:00:07;;;;;;;;;;;;;;;19.80;65.61;99920.78;7404772;19;1635;-58
2022/11/24 04:02:36;;;;;;;;;;;;;;;19.65;66.41;99920.50;7403090;19;1520;-58
2022/11/24 04:05:04;;;;;;;;;;;;;;;19.59;67.16;99910.44;7404946;19;1572;-58
2022/11/24 04:07:32;;;;;;;;;;;;;;;19.55;66.67;99919.78;7402002;19;1844;-57
2022/11/24 04:10:01;;;;;;;;;;;;;;;19.48;67.35;99931.16;7404834;19;1592;-58
2022/11/24 04:15:13;;;;;;;;;;;;;;;19.39;67.20;99945.50;7405715;19;1551;-58
2022/11/24 04:17:41;;;;;;;;;;;;;;;19.35;67.61;99935.25;7403703;19;1662;-58
2022/11/24 04:20:10;;;;;;;;;;;;;;;19.33;68.05;99962.22;7403090;19;1706;-57
2022/11/24 04:22:39;;;;;;;;;;;;;;;19.37;67.69;99955.53;7403864;19;1470;-58
2022/11/24 04:25:08;;;;;;;;;;;;;;;19.35;67.44;99954.88;7404261;19;1643;-58
2022/11/24 04:27:39;;;;;;;;;;;;;;;19.30;67.95;99959.00;7402372;19;1868;-57
2022/11/24 04:30:09;;;;;;;;;;;;;;;19.27;67.66;99954.81;7403852;19;1552;-58
2022/11/24 04:32:37;;;;;;;;;;;;;;;19.24;68.08;99973.91;7405052;19;1437;-58
2022/11/24 04:35:06;;;;;;;;;;;;;;;19.25;67.57;99956.81;7403293;19;1512;-58
2022/11/24 04:37:35;;;;;;;;;;;;;;;19.27;67.77;99960.19;7403486;19;1422;-57
2022/11/24 04:40:03;;;;;;;;;;;;;;;19.23;68.10;99962.31;7404106;19;1675;-57
2022/11/24 04:42:32;;;;;;;;;;;;;;;19.22;68.24;99965.19;7403321;19;1468;-57
2022/11/24 04:45:03;;;;;;;;;;;;;;;19.17;68.38;99967.47;7403858;19;1726;-57
2022/11/24 04:47:31;;;;;;;;;;;;;;;19.14;68.24;99971.31;7401762;19;1861;-57
2022/11/24 04:50:00;;;;;;;;;;;;;;;19.12;68.70;99977.81;7404793;19;1441;-57
2022/11/24 04:52:28;;;;;;;;;;;;;;;19.10;68.47;99979.81;7404078;19;1767;-57
2022/11/24 04:54:56;;;;;;;;;;;;;;;19.08;67.94;99961.22;7403415;19;1692;-58
2022/11/24 04:57:26;;;;;;;;;;;;;;;19.20;67.90;99976.06;7403412;19;1599;-58
2022/11/24 04:59:54;;;;;;;;;;;;;;;20.01;65.25;99958.75;7403296;19;1654;-58
2022/11/24 05:02:26;;;;;;;;;;;;;;;20.64;64.07;99960.13;7400889;19;1691;-58
2022/11/24 05:04:54;;;;;;;;;;;;;;;20.90;62.92;99990.56;7404228;19;1602;-58
2022/11/24 05:07:22;;;;;;;;;;;;;;;21.01;62.74;99988.41;7336235;19;12647;-58
2022/11/24 05:12:31;;;;;;;;;;;;;;;21.62;61.18;99986.16;7404556;19;1362;-58
2022/11/24 05:15:00;;;;;;;;;;;;;;;21.24;62.01;99971.56;7404022;19;1709;-58
2022/11/24 05:17:33;;;;;;;;;;;;;;;20.41;64.72;99978.72;7402863;19;1718;-58
2022/11/24 05:20:01;;;;;;;;;;;;;;;20.00;66.33;99993.81;7403156;19;1515;-54
2022/11/24 05:22:30;;;;;;;;;;;;;;;19.83;67.59;99996.41;7402155;19;1542;-56
2022/11/24 05:24:58;;;;;;;;;;;;;;;19.70;68.35;99982.56;7400296;19;1667;-57
2022/11/24 05:27:27;;;;;;;;;;;;;;;19.55;68.45;100006.44;7401955;19;1865;-57
2022/11/24 05:29:55;;;;;;;;;;;;;;;19.55;68.49;100002.94;7401462;19;1553;-57
2022/11/24 05:32:23;;;;;;;;;;;;;;;19.41;66.59;100009.69;7403336;19;1698;-57
2022/11/24 05:34:55;;;;;;;;;;;;;;;19.42;68.27;100014.91;7400893;19;1494;-56
2022/11/24 05:37:24;;;;;;;;;;;;;;;19.44;68.50;100036.22;7399673;19;1785;-58
2022/11/24 05:39:53;;;;;;;;;;;;;;;19.38;69.26;100021.59;7401888;19;1556;-57
2022/11/24 05:45:02;;;;;;;;;;;;;;;19.33;68.86;100023.03;7403022;19;1528;-58
2022/11/24 05:47:30;;;;;;;;;;;;;;;19.32;69.12;100022.22;7400109;19;1847;-57
2022/11/24 05:50:02;;;;;;;;;;;;;;;19.34;69.15;100025.59;7403277;19;1210;-57
2022/11/24 05:52:30;;;;;;;;;;;;;;;19.35;69.43;100023.72;7398968;19;1544;-59
2022/11/24 05:54:58;;;;;;;;;;;;;;;19.31;69.39;100036.59;7400250;19;1717;-58
2022/11/24 05:57:26;;;;;;;;;;;;;;;19.31;69.59;100052.69;7401119;19;1538;-58
2022/11/24 05:59:55;;;;;;;;;;;;;;;19.26;69.33;100052.31;7401465;19;1317;-58
2022/11/24 06:02:23;;;;;;;;;;;;;;;19.31;69.31;100058.03;7399946;19;1430;-58
2022/11/24 06:04:51;;;;;;;;;;;;;;;19.34;69.59;100049.72;7403017;19;1079;-57
2022/11/24 06:07:22;;;;;;;;;;;;;;;19.28;70.06;100066.41;7404711;19;1862;-58
2022/11/24 06:09:51;;;;;;;;;;;;;;;19.22;70.07;100059.00;7408940;19;1400;-58
2022/11/24 06:12:19;;;;;;;;;;;;;;;19.24;69.87;100065.03;7407661;19;1414;-58
2022/11/24 06:14:47;;;;;;;;;;;;;;;19.26;70.20;100066.56;7409627;19;1033;-58
2022/11/24 06:17:16;;;;;;;;;;;;;;;19.29;69.94;100081.50;7407692;19;1189;-58
2022/11/24 06:19:46;;;;;;;;;;;;;;;19.19;69.99;100070.84;7406781;19;1310;-58
2022/11/24 06:22:15;;;;;;;;;;;;;;;19.18;69.80;100085.25;7406370;19;1253;-58
2022/11/24 06:24:45;;;;;;;;;;;;;;;19.17;70.03;100082.72;7407016;19;1322;-58
2022/11/24 06:27:14;;;;;;;;;;;;;;;19.58;69.55;100080.41;7406500;19;1859;-58
2022/11/24 06:29:42;;;;;;;;;;;;;;;20.57;66.20;100071.91;7404827;19;1478;-59
2022/11/24 06:32:11;;;;;;;;;;;;;;;21.45;63.59;100081.38;7407962;19;1231;-56
2022/11/24 06:34:39;;;;;;;;;;;;;;;21.28;63.26;100087.72;7406249;19;1560;-55
2022/11/24 06:37:08;;;;;;;;;;;;;;;21.10;63.49;100077.94;7407198;19;1348;-61
2022/11/24 06:39:36;;;;;;;;;;;;;;;21.14;62.39;100095.41;7406386;19;1581;-57
2022/11/24 06:42:07;;;;;;;;;;;;;;;21.02;63.74;100097.56;7406393;19;1544;-56
2022/11/24 06:44:35;;;;;;;;;;;;;;;20.81;64.43;100086.44;7405873;19;1627;-57
2022/11/24 06:47:04;;;;;;;;;;;;;;;20.18;66.76;100098.44;7405168;19;1848;-55
2022/11/24 06:49:32;;;;;;;;;;;;;;;19.86;67.15;100095.38;7409397;19;1092;-56
2022/11/24 06:52:00;;;;;;;;;;;;;;;19.63;67.26;100103.03;7405480;19;1680;-56
2022/11/24 06:54:29;;;;;;;;;;;;;;;19.61;68.08;100120.31;7405754;19;1284;-58
2022/11/24 06:56:57;;;;;;;;;;;;;;;19.60;67.73;100110.59;7408350;19;1338;-57
2022/11/24 06:59:28;;;;;;;;;;;;;;;19.65;67.30;100110.94;7406705;19;1688;-66
2022/11/24 07:01:57;;;;;;;;;;;;;;;19.77;66.94;100111.56;7407174;19;1576;-55
2022/11/24 07:04:25;;;;;;;;;;;;;;;19.75;67.03;100130.50;7406006;19;1585;-57
2022/11/24 07:06:54;;;;;;;;;;;;;;;19.74;67.24;100139.56;7405956;19;1823;-59
2022/11/24 07:09:22;;;;;;;;;;;;;;;19.76;68.01;100142.94;7404337;19;1863;-64
2022/11/24 07:11:50;;;;;;;;;;;;;;;19.79;67.66;100142.59;7404792;19;1307;-60
2022/11/24 07:14:18;;;;;;;;;;;;;;;19.76;67.88;100148.28;7402454;19;1703;-62
2022/11/24 07:16:49;;;;;;;;;;;;;;;19.74;68.31;100155.66;7407811;19;1533;-58
2022/11/24 07:19:18;;;;;;;;;;;;;;;19.73;68.66;100151.28;7404780;19;1734;-58
2022/11/24 07:21:46;;;;;;;;;;;;;;;19.79;68.11;100131.03;7400763;19;1474;-58
2022/11/24 07:24:14;;;;;;;;;;;;;;;19.81;68.45;100159.38;7404015;19;1798;-61
2022/11/24 07:26:42;;;;;;;;;;;;;;;19.52;68.83;100146.22;7405239;19;1558;-63
2022/11/24 07:29:11;;;;;;;;;;;;;;;19.21;68.73;100169.88;7404131;19;1815;-63
2022/11/24 07:31:39;;;;;;;;;;;;;;;19.19;68.60;100167.34;7405893;19;1798;-63
2022/11/24 07:34:10;;;;;;;;;;;;;;;19.16;68.79;100158.75;7404736;19;1448;-63
2022/11/24 07:36:38;;;;;;;;;;;;;;;19.19;69.11;100169.19;7403070;19;1486;-63
2022/11/24 07:39:07;;;;;;;;;;;;;;;19.33;68.65;100179.38;7405717;19;1655;-63
2022/11/24 07:41:36;;;;;;;;;;;;;;;19.33;69.30;100168.66;7405943;19;1449;-62
2022/11/24 07:44:07;;;;;;;;;;;;;;;19.28;67.77;100170.97;7404254;19;1445;-64
2022/11/24 07:46:35;;;;;;;;;;;;;;;19.21;68.73;100180.59;7405114;19;1438;-63
2022/11/24 07:49:04;;;;;;;;;;;;;;;19.13;69.13;100181.34;7403670;19;1853;-63
2022/11/24 07:51:35;;;;;;;;;;;;;;;19.15;69.18;100179.34;7406686;19;1454;-63
2022/11/24 07:54:04;;;;;;;;;;;;;;;19.24;68.56;100165.06;7404665;19;1616;-63
2022/11/24 07:56:32;;;;;;;;;;;;;;;19.20;68.61;100178.88;7406533;19;1402;-63
2022/11/24 07:59:00;;;;;;;;;;;;;;;19.29;69.09;100172.63;7404526;19;1508;-63
2022/11/24 08:01:28;;;;;;;;;;;;;;;19.47;68.78;100186.88;7402174;19;1679;-63
2022/11/24 08:03:57;;;;;;;;;;;;;;;19.45;68.47;100188.88;7403570;19;1437;-63
2022/11/24 08:06:25;;;;;;;;;;;;;;;19.41;68.86;100187.50;7403798;19;1453;-62
2022/11/24 08:08:56;;;;;;;;;;;;;;;19.36;68.81;100189.81;7401590;19;1859;-63
2022/11/24 08:11:24;;;;;;;;;;;;;;;19.30;69.37;100192.22;7405300;19;1450;-62
2022/11/24 08:13:53;;;;;;;;;;;;;;;19.18;69.19;100196.97;7404959;19;1505;-62
2022/11/24 08:16:21;;;;;;;;;;;;;;;19.31;69.43;100202.81;7405103;19;1652;-63
2022/11/24 08:18:53;;;;;;;;;;;;;;;19.45;68.89;100204.97;7403746;19;1445;-62
2022/11/24 08:21:22;;;;;;;;;;;;;;;19.45;69.01;100199.59;7405669;19;1402;-63
2022/11/24 08:23:51;;;;;;;;;;;;;;;19.40;69.29;100190.34;7404837;19;1446;-62
2022/11/24 08:26:23;;;;;;;;;;;;;;;19.38;68.83;100198.53;7404254;19;1437;-63
2022/11/24 08:28:54;;;;;;;;;;;;;;;19.25;69.88;100203.41;7404198;19;1866;-63
2022/11/24 08:31:23;;;;;;;;;;;;;;;19.21;69.78;100192.16;7404777;19;1357;-63
2022/11/24 08:33:52;;;;;;;;;;;;;;;19.26;69.34;100187.19;7404655;19;1435;-63
2022/11/24 08:36:20;;;;;;;;;;;;;;;19.23;69.47;100200.88;7402754;19;1379;-63
2022/11/24 08:38:49;;;;;;;;;;;;;;;19.21;69.31;100196.69;7403914;19;1295;-63
2022/11/24 08:41:18;;;;;;;;;;;;;;;19.19;70.39;100207.53;7406390;19;1006;-63
2022/11/24 08:43:49;;;;;;;;;;;;;;;19.37;69.84;100191.47;7405215;19;1124;-63
2022/11/24 08:46:18;;;;;;;;;;;;;;;19.52;68.91;100190.94;7405023;19;1775;-63
2022/11/24 08:48:49;;;;;;;;;;;;;;;19.51;69.24;100208.88;7403379;19;1853;-63
2022/11/24 08:51:19;;;;;;;;;;;;;;;19.35;69.70;100217.59;7398635;19;1486;-63
2022/11/24 08:53:47;;;;;;;;;;;;;;;19.29;69.62;100247.69;7404370;19;1876;-63
2022/11/24 08:56:16;;;;;;;;;;;;;;;19.21;69.83;100221.63;7404736;19;1191;-63
2022/11/24 08:58:44;;;;;;;;;;;;;;;19.20;70.14;100221.78;7403367;19;1613;-62
2022/11/24 09:01:16;;;;;;;;;;;;;;;19.32;69.79;100206.34;7402178;19;1578;-62
2022/11/24 09:03:44;;;;;;;;;;;;;;;19.50;69.47;100219.75;7402682;19;1466;-62
2022/11/24 09:06:13;;;;;;;;;;;;;;;19.41;69.63;100208.94;7400441;19;1534;-63
2022/11/24 09:08:41;;;;;;;;;;;;;;;19.43;69.14;100212.31;7401544;19;1871;-63
2022/11/24 09:11:11;;;;;;;;;;;;;;;19.40;69.59;100209.13;7404476;19;1280;-62
2022/11/24 09:13:39;;;;;;;;;;;;;;;19.27;69.95;100210.31;7403834;19;1436;-62
2022/11/24 09:16:09;;;;;;;;;;;;;;;19.35;69.74;100222.13;7402687;19;1711;-62
2022/11/24 09:18:40;;;;;;;;;;;;;;;19.40;69.63;100233.25;7400625;19;1792;-63
2022/11/24 09:21:09;;;;;;;;;;;;;;;19.32;69.53;100235.81;7402903;19;1541;-62
2022/11/24 09:23:38;;;;;;;;;;;;;;;19.30;69.84;100235.13;7403498;19;1367;-63
2022/11/24 09:26:07;;;;;;;;;;;;;;;19.23;69.90;100241.09;7404192;19;1483;-63
2022/11/24 09:28:35;;;;;;;;;;;;;;;19.40;69.68;100233.25;7401869;19;1847;-62
2022/11/24 09:31:04;;;;;;;;;;;;;;;19.50;69.76;100219.75;7401561;19;1562;-63
2022/11/24 09:33:33;;;;;;;;;;;;;;;19.55;69.16;100222.84;7403228;19;1639;-63
2022/11/24 09:36:04;;;;;;;;;;;;;;;19.52;69.26;100231.16;7403482;19;1483;-63
2022/11/24 09:38:32;;;;;;;;;;;;;;;19.41;69.73;100229.56;7404030;19;1254;-62
2022/11/24 09:41:16;;;;;;;;;;;;;;;19.27;69.64;100236.28;7403633;19;1447;-62
2022/11/24 09:43:49;;;;;;;;;;;;;;;19.24;70.28;100212.47;7410804;19;1482;-63
2022/11/24 09:46:20;;;;;;;;;;;;;;;19.26;70.25;100231.94;7409513;19;1704;-62
2022/11/24 09:48:50;;;;;;;;;;;;;;;19.28;70.17;100216.53;7406901;19;1847;-63
2022/11/24 09:51:23;;;;;;;;;;;;;;;19.25;70.09;100235.59;7408786;19;1636;-62
2022/11/24 09:53:55;;;;;;;;;;;;;;;19.16;70.70;100234.66;7409198;19;1482;-62
2022/11/24 09:56:25;;;;;;;;;;;;;;;19.28;70.08;100235.31;7409131;19;1636;-62
2022/11/24 09:58:55;;;;;;;;;;;;;;;19.48;69.84;100226.13;7406729;19;1469;-63
2022/11/24 10:01:26;;;;;;;;;;;;;;;19.50;69.97;100243.88;7406540;19;1615;-62
2022/11/24 10:03:54;;;;;;;;;;;;;;;19.48;69.37;100230.66;7407170;19;1575;-62
2022/11/24 10:06:29;;;;;;;;;;;;;;;19.34;69.92;100229.34;7408772;19;1640;-62
2022/11/24 10:09:12;;;;;;;;;;;;;;;19.25;70.10;100219.50;7407412;19;1865;-62
2022/11/24 10:11:44;;;;;;;;;;;;;;;19.13;70.60;100237.63;7404366;19;1741;-62
2022/11/24 10:14:23;;;;;;;;;;;;;;;19.15;70.83;100213.34;7407745;19;1616;-63
2022/11/24 10:16:55;;;;;;;;;;;;;;;19.32;70.05;100241.19;7406620;19;1437;-62
2022/11/24 10:19:32;;;;;;;;;;;;;;;19.45;69.55;100220.22;7408572;19;1553;-62
2022/11/24 10:22:11;;;;;;;;;;;;;;;19.36;69.96;100218.44;7408250;19;1584;-62
2022/11/24 10:24:54;;;;;;;;;;;;;;;19.37;70.30;100212.09;7406974;19;1552;-62
2022/11/24 10:27:28;;;;;;;;;;;;;;;19.21;70.31;100218.13;7407251;19;1623;-63
2022/11/24 10:29:56;;;;;;;;;;;;;;;19.24;70.70;100232.06;7405179;19;1862;-63
2022/11/24 10:32:26;;;;;;;;;;;;;;;19.32;70.29;100231.31;7409108;19;1706;-62
2022/11/24 10:34:55;;;;;;;;;;;;;;;19.22;70.17;100225.19;7406179;19;1267;-63
2022/11/24 10:37:30;;;;;;;;;;;;;;;19.04;71.13;100235.84;7407062;19;1691;-63
2022/11/24 10:40:02;;;;;;;;;;;;;;;19.03;71.16;100220.75;7406595;19;1585;-63
2022/11/24 10:42:32;;;;;;;;;;;;;;;18.97;70.83;100219.50;7407028;19;1569;-63
2022/11/24 10:45:00;;;;;;;;;;;;;;;18.94;70.87;100222.50;7406583;19;1560;-62
2022/11/24 10:47:29;;;;;;;;;;;;;;;18.88;71.28;100217.75;7408812;19;1691;-63
2022/11/24 10:50:00;;;;;;;;;;;;;;;18.84;71.39;100227.03;7406466;19;1850;-63
2022/11/24 10:52:32;;;;;;;;;;;;;;;18.79;70.86;100235.53;7405481;19;1568;-63
2022/11/24 10:55:01;;;;;;;;;;;;;;;18.66;68.42;100202.84;7407483;19;1699;-61
2022/11/24 10:57:31;;;;;;;;;;;;;;;18.72;68.71;100212.13;7406807;19;1641;-62
2022/11/24 10:59:59;;;;;;;;;;;;;;;19.70;66.32;100213.28;7406554;19;1529;-62
2022/11/24 11:02:29;;;;;;;;;;;;;;;20.63;64.04;100208.31;7404643;19;1438;-62
2022/11/24 11:04:58;;;;;;;;;;;;;;;20.81;63.14;100202.00;7407363;19;1462;-61
2022/11/24 11:07:27;;;;;;;;;;;;;;;20.87;63.52;100204.06;7404392;19;1532;-62
2022/11/24 11:10:10;;;;;;;;;;;;;;;20.93;63.41;100227.59;7404403;19;1872;-62
2022/11/24 11:12:41;;;;;;;;;;;;;;;21.05;63.15;100207.47;7405670;19;1344;-62
2022/11/24 11:15:26;;;;;;;;;;;;;;;21.00;63.36;100211.66;7406766;19;1785;-64
2022/11/24 11:17:57;;;;;;;;;;;;;;;20.32;65.01;100217.81;7406267;19;1619;-64
2022/11/24 11:20:29;;;;;;;;;;;;;;;19.92;66.12;100205.78;7405709;19;1534;-62
2022/11/24 11:22:59;;;;;;;;;;;;;;;19.69;66.88;100216.94;7405592;19;1584;-62
2022/11/24 11:25:30;;;;;;;;;;;;;;;19.46;68.00;100229.97;7407541;19;1517;-62
2022/11/24 11:28:14;;;;;;;;;;;;;;;19.38;68.23;100230.72;7405270;19;1567;-62
2022/11/24 11:30:57;;;;;;;;;;;;;;;19.25;67.68;100219.50;7404146;19;1851;-62
2022/11/24 11:33:49;;;;;;;;;;;;;;;19.17;67.35;100222.09;7406272;19;1556;-61
2022/11/24 11:36:18;;;;;;;;;;;;;;;19.34;68.07;100223.09;7406273;19;1371;-62
2022/11/24 11:38:48;;;;;;;;;;;;;;;19.45;67.05;100204.97;7406899;19;1325;-62
2022/11/24 11:41:20;;;;;;;;;;;;;;;19.47;66.83;100212.88;7406880;19;1355;-62
2022/11/24 11:43:51;;;;;;;;;;;;;;;19.44;66.92;100229.28;7407101;19;1357;-62
2022/11/24 11:46:23;;;;;;;;;;;;;;;19.38;66.71;100219.16;7404027;19;1764;-63
2022/11/24 11:48:51;;;;;;;;;;;;;;;19.34;67.20;100215.06;7403557;19;1856;-62
2022/11/24 11:51:34;;;;;;;;;;;;;;;19.30;67.77;100205.63;7406669;19;1587;-62
2022/11/24 11:54:07;;;;;;;;;;;;;;;19.32;67.67;100228.66;7405263;19;1588;-62
2022/11/24 11:56:39;;;;;;;;;;;;;;;19.41;67.86;100230.41;7406344;19;1549;-62
2022/11/24 11:59:16;;;;;;;;;;;;;;;19.53;67.60;100238.22;7404356;19;1481;-62
2022/11/24 12:02:02;;;;;;;;;;;;;;;19.53;67.87;100235.56;7404394;19;1522;-62
2022/11/24 12:04:36;;;;;;;;;;;;;;;19.39;68.17;100242.28;7403839;19;1647;-63
2022/11/24 12:07:20;;;;;;;;;;;;;;;19.28;66.78;100262.09;7404317;19;1683;-62
2022/11/24 12:09:54;;;;;;;;;;;;;;;19.18;66.47;100240.72;7403514;19;1859;-61
2022/11/24 12:12:37;;;;;;;;;;;;;;;19.17;67.10;100235.50;7404429;19;1334;-62
2022/11/24 12:15:09;;;;;;;;;;;;;;;19.16;67.75;100249.88;7402479;19;1607;-62
2022/11/24 12:17:43;;;;;;;;;;;;;;;19.19;68.96;100246.91;7404306;19;1341;-63
2022/11/24 12:20:24;;;;;;;;;;;;;;;19.29;68.46;100269.13;7404778;19;993;-62
2022/11/24 12:23:00;;;;;;;;;;;;;;;19.34;67.84;100240.06;7404483;19;1739;-61
2022/11/24 12:25:31;;;;;;;;;;;;;;;19.26;68.13;100238.13;7404597;19;1431;-62
2022/11/24 12:28:07;;;;;;;;;;;;;;;19.21;68.35;100250.28;7403535;19;1563;-62
2022/11/24 12:30:40;;;;;;;;;;;;;;;19.16;68.80;100261.47;7403405;19;1884;-62
2022/11/24 12:33:23;;;;;;;;;;;;;;;19.11;69.18;100254.84;7403340;19;1683;-62
2022/11/24 12:36:02;;;;;;;;;;;;;;;19.10;68.83;100250.47;7405152;19;1474;-62
2022/11/24 12:38:38;;;;;;;;;;;;;;;19.70;67.37;100268.75;7405600;19;1020;-62
2022/11/24 12:41:15;;;;;;;;;;;;;;;20.62;64.18;100264.88;7402950;19;1437;-62
2022/11/24 12:43:49;;;;;;;;;;;;;;;21.15;63.12;100271.88;7401466;19;1850;-66
2022/11/24 12:46:21;;;;;;;;;;;;;;;21.18;65.69;100241.97;7403638;19;1683;-70
2022/11/24 12:48:54;;;;;;;;;;;;;;;21.24;65.32;100246.69;7403472;19;1618;-65
2022/11/24 12:51:29;;;;;;;;;;;;;;;21.19;66.05;100232.91;7404693;19;1539;-68
2022/11/24 12:53:59;;;;;;;;;;;;;;;21.05;67.94;100253.19;7402362;19;1481;-62
2022/11/24 12:56:32;;;;;;;;;;;;;;;20.57;69.02;100251.91;7401122;19;1548;-61
2022/11/24 12:59:05;;;;;;;;;;;;;;;20.15;69.29;100243.69;7402997;19;1528;-62
2022/11/24 13:01:38;;;;;;;;;;;;;;;19.83;70.03;100245.09;7403520;19;1578;-62
2022/11/24 13:04:12;;;;;;;;;;;;;;;19.67;70.54;100243.06;7403531;19;1684;-62
2022/11/24 13:06:48;;;;;;;;;;;;;;;19.54;70.97;100247.97;7398996;19;1616;-62
2022/11/24 13:09:16;;;;;;;;;;;;;;;19.47;71.92;100259.28;7402280;19;1851;-62
2022/11/24 13:11:45;;;;;;;;;;;;;;;19.35;71.52;100247.09;7403625;19;1312;-62
2022/11/24 13:14:16;;;;;;;;;;;;;;;19.32;71.22;100236.69;7404774;19;1510;-74